sensor_id;sensor_type;location;lat;lon;timestamp;P1;durP1;ratioP1;P2;durP2;ratioP2
2896;SDS011;1458;49.728;9.228;2022-09-17T00:02:11;0.60;;;0.60;;
2896;SDS011;1458;49.728;9.228;2022-09-17T00:04:39;0.53;;;0.53;;
2896;SDS011;1458;49.728;9.228;2022-09-17T00:07:06;0.67;;;0.67;;
2896;SDS011;1458;49.728;9.228;2022-09-17T00:09:34;0.50;;;0.50;;
2896;SDS011;1458;49.728;9.228;2022-09-17T00:12:03;0.50;;;0.50;;
2896;SDS011;1458;49.728;9.228;2022-09-17T00:14:31;0.50;;;0.50;;
2896;SDS011;1458;49.728;9.228;2022-09-17T00:16:58;0.70;;;0.70;;
2896;SDS011;1458;49.728;9.228;2022-09-17T00:19:25;0.50;;;0.50;;
2896;SDS011;1458;49.728;9.228;2022-09-17T00:22:05;0.60;;;0.60;;
2896;SDS011;1458;49.728;9.228;2022-09-17T00:24:32;0.60;;;0.60;;
2896;SDS011;1458;49.728;9.228;2022-09-17T00:27:02;0.53;;;0.53;;
2896;SDS011;1458;49.728;9.228;2022-09-17T00:29:30;0.50;;;0.50;;
2896;SDS011;1458;49.728;9.228;2022-09-17T00:34:53;0.60;;;0.60;;
2896;SDS011;1458;49.728;9.228;2022-09-17T00:37:26;0.50;;;0.50;;
2896;SDS011;1458;49.728;9.228;2022-09-17T00:39:54;0.40;;;0.40;;
2896;SDS011;1458;49.728;9.228;2022-09-17T00:42:22;0.50;;;0.50;;
2896;SDS011;1458;49.728;9.228;2022-09-17T00:44:50;0.40;;;0.40;;
2896;SDS011;1458;49.728;9.228;2022-09-17T00:47:21;0.40;;;0.40;;
2896;SDS011;1458;49.728;9.228;2022-09-17T00:49:54;0.50;;;0.50;;
2896;SDS011;1458;49.728;9.228;2022-09-17T00:52:28;0.50;;;0.50;;
2896;SDS011;1458;49.728;9.228;2022-09-17T00:55:02;0.50;;;0.50;;
2896;SDS011;1458;49.728;9.228;2022-09-17T00:57:57;0.50;;;0.50;;
2896;SDS011;1458;49.728;9.228;2022-09-17T01:00:28;0.50;;;0.50;;
2896;SDS011;1458;49.728;9.228;2022-09-17T01:02:58;0.50;;;0.50;;
2896;SDS011;1458;49.728;9.228;2022-09-17T01:05:29;0.50;;;0.50;;
2896;SDS011;1458;49.728;9.228;2022-09-17T01:08:03;0.50;;;0.50;;
2896;SDS011;1458;49.728;9.228;2022-09-17T01:10:46;0.50;;;0.50;;
2896;SDS011;1458;49.728;9.228;2022-09-17T01:13:31;0.50;;;0.50;;
2896;SDS011;1458;49.728;9.228;2022-09-17T01:16:09;0.50;;;0.50;;
2896;SDS011;1458;49.728;9.228;2022-09-17T01:19:49;0.60;;;0.60;;
2896;SDS011;1458;49.728;9.228;2022-09-17T01:22:58;0.50;;;0.50;;
2896;SDS011;1458;49.728;9.228;2022-09-17T01:25:53;0.60;;;0.60;;
2896;SDS011;1458;49.728;9.228;2022-09-17T01:28:55;0.60;;;0.60;;
2896;SDS011;1458;49.728;9.228;2022-09-17T01:34:55;0.60;;;0.60;;
2896;SDS011;1458;49.728;9.228;2022-09-17T01:37:31;0.70;;;0.70;;
2896;SDS011;1458;49.728;9.228;2022-09-17T01:40:04;0.70;;;0.70;;
2896;SDS011;1458;49.728;9.228;2022-09-17T01:42:40;0.70;;;0.70;;
2896;SDS011;1458;49.728;9.228;2022-09-17T01:45:17;0.70;;;0.70;;
2896;SDS011;1458;49.728;9.228;2022-09-17T01:47:58;0.60;;;0.60;;
2896;SDS011;1458;49.728;9.228;2022-09-17T01:50:32;0.87;;;0.87;;
2896;SDS011;1458;49.728;9.228;2022-09-17T01:53:04;0.60;;;0.60;;
2896;SDS011;1458;49.728;9.228;2022-09-17T01:55:35;0.70;;;0.70;;
2896;SDS011;1458;49.728;9.228;2022-09-17T01:58:06;0.60;;;0.60;;
2896;SDS011;1458;49.728;9.228;2022-09-17T02:00:39;0.67;;;0.67;;
2896;SDS011;1458;49.728;9.228;2022-09-17T02:03:14;0.60;;;0.60;;
2896;SDS011;1458;49.728;9.228;2022-09-17T02:05:47;0.70;;;0.70;;
2896;SDS011;1458;49.728;9.228;2022-09-17T02:08:20;0.70;;;0.70;;
2896;SDS011;1458;49.728;9.228;2022-09-17T02:10:52;0.70;;;0.70;;
2896;SDS011;1458;49.728;9.228;2022-09-17T02:13:25;0.73;;;0.73;;
2896;SDS011;1458;49.728;9.228;2022-09-17T02:15:59;0.60;;;0.60;;
2896;SDS011;1458;49.728;9.228;2022-09-17T02:18:35;0.60;;;0.60;;
2896;SDS011;1458;49.728;9.228;2022-09-17T02:21:07;0.60;;;0.60;;
2896;SDS011;1458;49.728;9.228;2022-09-17T02:23:41;0.70;;;0.70;;
2896;SDS011;1458;49.728;9.228;2022-09-17T02:26:16;0.70;;;0.70;;
2896;SDS011;1458;49.728;9.228;2022-09-17T02:29:56;0.60;;;0.60;;
2896;SDS011;1458;49.728;9.228;2022-09-17T02:32:23;0.60;;;0.60;;
2896;SDS011;1458;49.728;9.228;2022-09-17T02:34:52;0.80;;;0.80;;
2896;SDS011;1458;49.728;9.228;2022-09-17T02:37:32;0.70;;;0.70;;
2896;SDS011;1458;49.728;9.228;2022-09-17T02:39:59;0.60;;;0.60;;
2896;SDS011;1458;49.728;9.228;2022-09-17T02:42:29;0.60;;;0.60;;
2896;SDS011;1458;49.728;9.228;2022-09-17T02:45:13;0.63;;;0.63;;
2896;SDS011;1458;49.728;9.228;2022-09-17T02:48:07;0.70;;;0.70;;
2896;SDS011;1458;49.728;9.228;2022-09-17T02:51:07;0.70;;;0.70;;
2896;SDS011;1458;49.728;9.228;2022-09-17T02:53:51;0.70;;;0.70;;
2896;SDS011;1458;49.728;9.228;2022-09-17T03:03:47;0.70;;;0.70;;
2896;SDS011;1458;49.728;9.228;2022-09-17T03:09:33;0.60;;;0.60;;
2896;SDS011;1458;49.728;9.228;2022-09-17T03:12:00;0.70;;;0.70;;
2896;SDS011;1458;49.728;9.228;2022-09-17T03:14:28;0.67;;;0.67;;
2896;SDS011;1458;49.728;9.228;2022-09-17T03:16:55;0.70;;;0.70;;
2896;SDS011;1458;49.728;9.228;2022-09-17T03:19:23;0.70;;;0.70;;
2896;SDS011;1458;49.728;9.228;2022-09-17T03:21:52;0.60;;;0.60;;
2896;SDS011;1458;49.728;9.228;2022-09-17T03:24:21;0.70;;;0.70;;
2896;SDS011;1458;49.728;9.228;2022-09-17T03:26:48;0.60;;;0.60;;
2896;SDS011;1458;49.728;9.228;2022-09-17T03:29:17;0.70;;;0.70;;
2896;SDS011;1458;49.728;9.228;2022-09-17T03:31:44;0.70;;;0.70;;
2896;SDS011;1458;49.728;9.228;2022-09-17T03:34:12;0.80;;;0.80;;
2896;SDS011;1458;49.728;9.228;2022-09-17T03:36:39;0.80;;;0.80;;
2896;SDS011;1458;49.728;9.228;2022-09-17T03:39:06;0.80;;;0.80;;
2896;SDS011;1458;49.728;9.228;2022-09-17T03:41:35;0.80;;;0.80;;
2896;SDS011;1458;49.728;9.228;2022-09-17T03:44:03;0.80;;;0.80;;
2896;SDS011;1458;49.728;9.228;2022-09-17T03:46:31;0.70;;;0.70;;
2896;SDS011;1458;49.728;9.228;2022-09-17T03:48:58;0.70;;;0.70;;
2896;SDS011;1458;49.728;9.228;2022-09-17T03:51:26;0.70;;;0.70;;
2896;SDS011;1458;49.728;9.228;2022-09-17T03:53:53;0.70;;;0.70;;
2896;SDS011;1458;49.728;9.228;2022-09-17T03:56:21;0.70;;;0.70;;
2896;SDS011;1458;49.728;9.228;2022-09-17T03:58:49;0.60;;;0.60;;
2896;SDS011;1458;49.728;9.228;2022-09-17T04:01:17;0.60;;;0.60;;
2896;SDS011;1458;49.728;9.228;2022-09-17T04:03:44;0.60;;;0.60;;
2896;SDS011;1458;49.728;9.228;2022-09-17T04:06:11;0.53;;;0.53;;
2896;SDS011;1458;49.728;9.228;2022-09-17T04:08:39;0.57;;;0.57;;
2896;SDS011;1458;49.728;9.228;2022-09-17T04:11:07;0.60;;;0.60;;
2896;SDS011;1458;49.728;9.228;2022-09-17T04:13:35;0.50;;;0.50;;
2896;SDS011;1458;49.728;9.228;2022-09-17T04:16:04;0.53;;;0.53;;
2896;SDS011;1458;49.728;9.228;2022-09-17T04:18:32;0.40;;;0.40;;
2896;SDS011;1458;49.728;9.228;2022-09-17T04:20:59;0.47;;;0.47;;
2896;SDS011;1458;49.728;9.228;2022-09-17T04:23:28;0.40;;;0.40;;
2896;SDS011;1458;49.728;9.228;2022-09-17T04:25:55;0.40;;;0.40;;
2896;SDS011;1458;49.728;9.228;2022-09-17T04:28:22;0.40;;;0.40;;
2896;SDS011;1458;49.728;9.228;2022-09-17T04:30:50;0.40;;;0.40;;
2896;SDS011;1458;49.728;9.228;2022-09-17T04:33:19;0.30;;;0.30;;
2896;SDS011;1458;49.728;9.228;2022-09-17T04:35:47;0.40;;;0.40;;
2896;SDS011;1458;49.728;9.228;2022-09-17T04:38:14;0.40;;;0.40;;
2896;SDS011;1458;49.728;9.228;2022-09-17T04:40:44;0.40;;;0.40;;
2896;SDS011;1458;49.728;9.228;2022-09-17T04:43:12;0.30;;;0.30;;
2896;SDS011;1458;49.728;9.228;2022-09-17T04:45:40;0.30;;;0.30;;
2896;SDS011;1458;49.728;9.228;2022-09-17T04:48:13;0.40;;;0.40;;
2896;SDS011;1458;49.728;9.228;2022-09-17T04:50:42;0.30;;;0.30;;
2896;SDS011;1458;49.728;9.228;2022-09-17T04:53:09;0.30;;;0.30;;
2896;SDS011;1458;49.728;9.228;2022-09-17T04:55:37;0.40;;;0.40;;
2896;SDS011;1458;49.728;9.228;2022-09-17T04:58:04;0.40;;;0.40;;
2896;SDS011;1458;49.728;9.228;2022-09-17T05:00:32;0.43;;;0.43;;
2896;SDS011;1458;49.728;9.228;2022-09-17T05:03:04;0.30;;;0.30;;
2896;SDS011;1458;49.728;9.228;2022-09-17T05:05:31;0.30;;;0.30;;
2896;SDS011;1458;49.728;9.228;2022-09-17T05:08:00;0.30;;;0.30;;
2896;SDS011;1458;49.728;9.228;2022-09-17T05:10:29;0.37;;;0.37;;
2896;SDS011;1458;49.728;9.228;2022-09-17T05:12:56;0.30;;;0.30;;
2896;SDS011;1458;49.728;9.228;2022-09-17T05:15:24;0.30;;;0.30;;
2896;SDS011;1458;49.728;9.228;2022-09-17T05:17:52;0.30;;;0.30;;
2896;SDS011;1458;49.728;9.228;2022-09-17T05:20:20;0.30;;;0.30;;
2896;SDS011;1458;49.728;9.228;2022-09-17T05:22:48;0.30;;;0.30;;
2896;SDS011;1458;49.728;9.228;2022-09-17T05:25:19;0.30;;;0.30;;
2896;SDS011;1458;49.728;9.228;2022-09-17T05:27:49;0.30;;;0.30;;
2896;SDS011;1458;49.728;9.228;2022-09-17T05:30:17;0.30;;;0.30;;
2896;SDS011;1458;49.728;9.228;2022-09-17T05:32:45;0.30;;;0.30;;
2896;SDS011;1458;49.728;9.228;2022-09-17T05:35:13;0.30;;;0.30;;
2896;SDS011;1458;49.728;9.228;2022-09-17T05:37:40;0.37;;;0.37;;
2896;SDS011;1458;49.728;9.228;2022-09-17T05:40:08;0.30;;;0.30;;
2896;SDS011;1458;49.728;9.228;2022-09-17T05:42:37;0.30;;;0.30;;
2896;SDS011;1458;49.728;9.228;2022-09-17T05:45:05;0.40;;;0.40;;
2896;SDS011;1458;49.728;9.228;2022-09-17T05:47:34;0.30;;;0.30;;
2896;SDS011;1458;49.728;9.228;2022-09-17T05:50:02;0.30;;;0.30;;
2896;SDS011;1458;49.728;9.228;2022-09-17T05:52:30;0.40;;;0.40;;
2896;SDS011;1458;49.728;9.228;2022-09-17T05:54:57;0.30;;;0.30;;
2896;SDS011;1458;49.728;9.228;2022-09-17T05:57:25;0.30;;;0.30;;
2896;SDS011;1458;49.728;9.228;2022-09-17T05:59:56;0.30;;;0.30;;
2896;SDS011;1458;49.728;9.228;2022-09-17T06:02:23;0.40;;;0.40;;
2896;SDS011;1458;49.728;9.228;2022-09-17T06:04:51;0.30;;;0.30;;
2896;SDS011;1458;49.728;9.228;2022-09-17T06:07:20;0.30;;;0.30;;
2896;SDS011;1458;49.728;9.228;2022-09-17T06:09:47;0.30;;;0.30;;
2896;SDS011;1458;49.728;9.228;2022-09-17T06:12:14;0.30;;;0.30;;
2896;SDS011;1458;49.728;9.228;2022-09-17T06:14:42;0.30;;;0.30;;
2896;SDS011;1458;49.728;9.228;2022-09-17T06:17:11;0.30;;;0.30;;
2896;SDS011;1458;49.728;9.228;2022-09-17T06:19:38;0.30;;;0.30;;
2896;SDS011;1458;49.728;9.228;2022-09-17T06:22:05;0.30;;;0.30;;
2896;SDS011;1458;49.728;9.228;2022-09-17T06:24:36;0.40;;;0.40;;
2896;SDS011;1458;49.728;9.228;2022-09-17T06:27:03;0.30;;;0.30;;
2896;SDS011;1458;49.728;9.228;2022-09-17T06:29:33;0.30;;;0.30;;
2896;SDS011;1458;49.728;9.228;2022-09-17T06:32:01;0.30;;;0.30;;
2896;SDS011;1458;49.728;9.228;2022-09-17T06:34:30;0.40;;;0.40;;
2896;SDS011;1458;49.728;9.228;2022-09-17T06:36:57;0.30;;;0.30;;
2896;SDS011;1458;49.728;9.228;2022-09-17T06:39:27;0.30;;;0.30;;
2896;SDS011;1458;49.728;9.228;2022-09-17T06:41:55;0.30;;;0.30;;
2896;SDS011;1458;49.728;9.228;2022-09-17T06:44:22;0.30;;;0.30;;
2896;SDS011;1458;49.728;9.228;2022-09-17T06:46:49;0.30;;;0.30;;
2896;SDS011;1458;49.728;9.228;2022-09-17T06:49:17;0.30;;;0.30;;
2896;SDS011;1458;49.728;9.228;2022-09-17T06:51:46;0.40;;;0.40;;
2896;SDS011;1458;49.728;9.228;2022-09-17T06:54:13;0.40;;;0.40;;
2896;SDS011;1458;49.728;9.228;2022-09-17T06:56:41;0.30;;;0.30;;
2896;SDS011;1458;49.728;9.228;2022-09-17T06:59:08;0.30;;;0.30;;
2896;SDS011;1458;49.728;9.228;2022-09-17T07:01:35;0.43;;;0.43;;
2896;SDS011;1458;49.728;9.228;2022-09-17T07:04:03;0.30;;;0.30;;
2896;SDS011;1458;49.728;9.228;2022-09-17T07:06:30;0.30;;;0.30;;
2896;SDS011;1458;49.728;9.228;2022-09-17T07:08:59;0.40;;;0.40;;
2896;SDS011;1458;49.728;9.228;2022-09-17T07:11:28;0.30;;;0.30;;
2896;SDS011;1458;49.728;9.228;2022-09-17T07:13:58;0.40;;;0.40;;
2896;SDS011;1458;49.728;9.228;2022-09-17T07:16:26;0.40;;;0.40;;
2896;SDS011;1458;49.728;9.228;2022-09-17T07:18:59;0.30;;;0.30;;
2896;SDS011;1458;49.728;9.228;2022-09-17T07:21:26;0.30;;;0.30;;
2896;SDS011;1458;49.728;9.228;2022-09-17T07:23:54;0.30;;;0.30;;
2896;SDS011;1458;49.728;9.228;2022-09-17T07:26:23;0.30;;;0.30;;
2896;SDS011;1458;49.728;9.228;2022-09-17T07:28:50;0.40;;;0.40;;
2896;SDS011;1458;49.728;9.228;2022-09-17T07:31:18;0.40;;;0.40;;
2896;SDS011;1458;49.728;9.228;2022-09-17T07:33:45;0.40;;;0.40;;
2896;SDS011;1458;49.728;9.228;2022-09-17T07:36:13;0.30;;;0.30;;
2896;SDS011;1458;49.728;9.228;2022-09-17T07:38:43;0.40;;;0.40;;
2896;SDS011;1458;49.728;9.228;2022-09-17T07:41:12;0.30;;;0.30;;
2896;SDS011;1458;49.728;9.228;2022-09-17T07:43:42;0.33;;;0.33;;
2896;SDS011;1458;49.728;9.228;2022-09-17T07:46:12;0.30;;;0.30;;
2896;SDS011;1458;49.728;9.228;2022-09-17T07:48:41;0.30;;;0.30;;
2896;SDS011;1458;49.728;9.228;2022-09-17T07:51:13;0.40;;;0.40;;
2896;SDS011;1458;49.728;9.228;2022-09-17T07:53:43;0.40;;;0.40;;
2896;SDS011;1458;49.728;9.228;2022-09-17T07:56:15;0.40;;;0.40;;
2896;SDS011;1458;49.728;9.228;2022-09-17T07:58:44;0.40;;;0.40;;
2896;SDS011;1458;49.728;9.228;2022-09-17T08:01:12;0.40;;;0.40;;
2896;SDS011;1458;49.728;9.228;2022-09-17T08:03:41;0.53;;;0.53;;
2896;SDS011;1458;49.728;9.228;2022-09-17T08:06:14;0.40;;;0.40;;
2896;SDS011;1458;49.728;9.228;2022-09-17T08:08:45;0.40;;;0.40;;
2896;SDS011;1458;49.728;9.228;2022-09-17T08:11:13;0.30;;;0.30;;
2896;SDS011;1458;49.728;9.228;2022-09-17T08:13:42;0.50;;;0.50;;
2896;SDS011;1458;49.728;9.228;2022-09-17T08:16:14;0.50;;;0.50;;
2896;SDS011;1458;49.728;9.228;2022-09-17T08:18:43;0.50;;;0.50;;
2896;SDS011;1458;49.728;9.228;2022-09-17T08:21:12;0.50;;;0.50;;
2896;SDS011;1458;49.728;9.228;2022-09-17T08:23:42;0.50;;;0.50;;
2896;SDS011;1458;49.728;9.228;2022-09-17T08:26:10;0.60;;;0.60;;
2896;SDS011;1458;49.728;9.228;2022-09-17T08:28:42;0.60;;;0.60;;
2896;SDS011;1458;49.728;9.228;2022-09-17T08:31:13;0.60;;;0.60;;
2896;SDS011;1458;49.728;9.228;2022-09-17T08:33:43;0.60;;;0.60;;
2896;SDS011;1458;49.728;9.228;2022-09-17T08:36:11;0.63;;;0.63;;
2896;SDS011;1458;49.728;9.228;2022-09-17T08:38:41;0.77;;;0.77;;
2896;SDS011;1458;49.728;9.228;2022-09-17T08:41:13;0.60;;;0.60;;
2896;SDS011;1458;49.728;9.228;2022-09-17T08:43:51;0.70;;;0.70;;
2896;SDS011;1458;49.728;9.228;2022-09-17T08:46:37;0.77;;;0.77;;
2896;SDS011;1458;49.728;9.228;2022-09-17T08:49:15;0.70;;;0.70;;
2896;SDS011;1458;49.728;9.228;2022-09-17T08:51:58;0.80;;;0.80;;
2896;SDS011;1458;49.728;9.228;2022-09-17T08:54:44;0.80;;;0.80;;
2896;SDS011;1458;49.728;9.228;2022-09-17T08:57:19;1.20;;;1.20;;
2896;SDS011;1458;49.728;9.228;2022-09-17T08:59:53;1.20;;;1.20;;
2896;SDS011;1458;49.728;9.228;2022-09-17T09:02:44;1.50;;;1.50;;
2896;SDS011;1458;49.728;9.228;2022-09-17T09:05:29;1.20;;;1.20;;
2896;SDS011;1458;49.728;9.228;2022-09-17T09:08:03;1.30;;;1.30;;
2896;SDS011;1458;49.728;9.228;2022-09-17T09:10:41;1.50;;;1.50;;
2896;SDS011;1458;49.728;9.228;2022-09-17T09:13:19;1.40;;;1.40;;
2896;SDS011;1458;49.728;9.228;2022-09-17T09:15:52;1.73;;;1.73;;
2896;SDS011;1458;49.728;9.228;2022-09-17T09:18:26;1.50;;;1.50;;
2896;SDS011;1458;49.728;9.228;2022-09-17T09:20:59;1.93;;;1.93;;
2896;SDS011;1458;49.728;9.228;2022-09-17T09:23:46;2.00;;;2.00;;
2896;SDS011;1458;49.728;9.228;2022-09-17T09:26:23;2.00;;;2.00;;
2896;SDS011;1458;49.728;9.228;2022-09-17T09:29:07;2.77;;;2.77;;
2896;SDS011;1458;49.728;9.228;2022-09-17T09:31:57;2.40;;;2.40;;
2896;SDS011;1458;49.728;9.228;2022-09-17T09:34:38;2.70;;;2.70;;
2896;SDS011;1458;49.728;9.228;2022-09-17T09:37:09;2.20;;;2.20;;
2896;SDS011;1458;49.728;9.228;2022-09-17T09:39:44;1.30;;;1.30;;
2896;SDS011;1458;49.728;9.228;2022-09-17T09:42:17;0.80;;;0.80;;
2896;SDS011;1458;49.728;9.228;2022-09-17T09:44:55;0.70;;;0.70;;
2896;SDS011;1458;49.728;9.228;2022-09-17T09:47:34;0.50;;;0.50;;
2896;SDS011;1458;49.728;9.228;2022-09-17T09:50:31;0.50;;;0.50;;
2896;SDS011;1458;49.728;9.228;2022-09-17T09:53:12;0.40;;;0.40;;
2896;SDS011;1458;49.728;9.228;2022-09-17T09:55:52;0.30;;;0.30;;
2896;SDS011;1458;49.728;9.228;2022-09-17T09:58:41;0.30;;;0.30;;
2896;SDS011;1458;49.728;9.228;2022-09-17T10:01:10;0.20;;;0.20;;
2896;SDS011;1458;49.728;9.228;2022-09-17T10:03:47;0.30;;;0.30;;
2896;SDS011;1458;49.728;9.228;2022-09-17T10:06:19;0.40;;;0.40;;
2896;SDS011;1458;49.728;9.228;2022-09-17T10:11:37;0.37;;;0.37;;
2896;SDS011;1458;49.728;9.228;2022-09-17T10:14:20;0.40;;;0.40;;
2896;SDS011;1458;49.728;9.228;2022-09-17T10:16:52;0.50;;;0.50;;
2896;SDS011;1458;49.728;9.228;2022-09-17T10:20:07;0.50;;;0.50;;
2896;SDS011;1458;49.728;9.228;2022-09-17T10:22:42;0.60;;;0.60;;
2896;SDS011;1458;49.728;9.228;2022-09-17T10:25:23;0.70;;;0.70;;
2896;SDS011;1458;49.728;9.228;2022-09-17T10:27:56;1.83;;;1.83;;
2896;SDS011;1458;49.728;9.228;2022-09-17T10:30:26;2.50;;;2.50;;
2896;SDS011;1458;49.728;9.228;2022-09-17T10:33:09;2.60;;;2.60;;
2896;SDS011;1458;49.728;9.228;2022-09-17T10:38:31;3.77;;;3.77;;
2896;SDS011;1458;49.728;9.228;2022-09-17T10:41:08;3.50;;;3.50;;
2896;SDS011;1458;49.728;9.228;2022-09-17T10:43:46;3.90;;;3.90;;
2896;SDS011;1458;49.728;9.228;2022-09-17T10:46:14;4.23;;;4.23;;
2896;SDS011;1458;49.728;9.228;2022-09-17T10:48:49;4.40;;;4.40;;
2896;SDS011;1458;49.728;9.228;2022-09-17T10:51:31;5.07;;;5.07;;
2896;SDS011;1458;49.728;9.228;2022-09-17T10:54:03;4.73;;;4.73;;
2896;SDS011;1458;49.728;9.228;2022-09-17T10:57:04;5.10;;;5.10;;
2896;SDS011;1458;49.728;9.228;2022-09-17T10:59:46;5.50;;;5.50;;
2896;SDS011;1458;49.728;9.228;2022-09-17T11:02:37;5.47;;;5.47;;
2896;SDS011;1458;49.728;9.228;2022-09-17T11:06:06;4.40;;;4.40;;
2896;SDS011;1458;49.728;9.228;2022-09-17T11:08:55;3.50;;;3.50;;
2896;SDS011;1458;49.728;9.228;2022-09-17T11:11:40;3.27;;;3.27;;
2896;SDS011;1458;49.728;9.228;2022-09-17T11:14:35;3.60;;;3.60;;
2896;SDS011;1458;49.728;9.228;2022-09-17T11:17:26;3.40;;;3.40;;
2896;SDS011;1458;49.728;9.228;2022-09-17T11:20:28;3.10;;;3.10;;
2896;SDS011;1458;49.728;9.228;2022-09-17T11:23:22;2.90;;;2.90;;
2896;SDS011;1458;49.728;9.228;2022-09-17T11:26:14;3.30;;;3.30;;
2896;SDS011;1458;49.728;9.228;2022-09-17T11:29:02;4.00;;;4.00;;
2896;SDS011;1458;49.728;9.228;2022-09-17T11:31:46;3.93;;;3.93;;
2896;SDS011;1458;49.728;9.228;2022-09-17T11:34:25;4.50;;;4.50;;
2896;SDS011;1458;49.728;9.228;2022-09-17T11:36:59;4.50;;;4.50;;
2896;SDS011;1458;49.728;9.228;2022-09-17T11:39:36;5.00;;;5.00;;
2896;SDS011;1458;49.728;9.228;2022-09-17T11:42:15;4.70;;;4.70;;
2896;SDS011;1458;49.728;9.228;2022-09-17T11:44:49;4.90;;;4.90;;
2896;SDS011;1458;49.728;9.228;2022-09-17T11:47:21;5.10;;;5.10;;
2896;SDS011;1458;49.728;9.228;2022-09-17T11:49:57;5.60;;;5.60;;
2896;SDS011;1458;49.728;9.228;2022-09-17T11:52:30;6.03;;;6.03;;
2896;SDS011;1458;49.728;9.228;2022-09-17T11:55:04;7.03;;;6.93;;
2896;SDS011;1458;49.728;9.228;2022-09-17T11:57:43;6.43;;;6.43;;
2896;SDS011;1458;49.728;9.228;2022-09-17T12:00:13;6.23;;;6.23;;
2896;SDS011;1458;49.728;9.228;2022-09-17T12:02:46;6.03;;;6.03;;
2896;SDS011;1458;49.728;9.228;2022-09-17T12:05:20;5.80;;;5.80;;
2896;SDS011;1458;49.728;9.228;2022-09-17T12:07:53;5.80;;;5.80;;
2896;SDS011;1458;49.728;9.228;2022-09-17T12:10:32;5.87;;;5.87;;
2896;SDS011;1458;49.728;9.228;2022-09-17T12:13:13;6.43;;;6.40;;
2896;SDS011;1458;49.728;9.228;2022-09-17T12:15:56;6.90;;;6.80;;
2896;SDS011;1458;49.728;9.228;2022-09-17T12:18:40;6.87;;;6.77;;
2896;SDS011;1458;49.728;9.228;2022-09-17T12:21:26;6.00;;;6.00;;
2896;SDS011;1458;49.728;9.228;2022-09-17T12:24:03;6.97;;;6.87;;
2896;SDS011;1458;49.728;9.228;2022-09-17T12:26:47;7.00;;;6.90;;
2896;SDS011;1458;49.728;9.228;2022-09-17T12:29:45;6.87;;;6.77;;
2896;SDS011;1458;49.728;9.228;2022-09-17T12:32:33;6.00;;;6.00;;
2896;SDS011;1458;49.728;9.228;2022-09-17T12:35:45;6.00;;;6.00;;
2896;SDS011;1458;49.728;9.228;2022-09-17T12:38:33;5.80;;;5.80;;
2896;SDS011;1458;49.728;9.228;2022-09-17T12:41:18;6.53;;;6.47;;
2896;SDS011;1458;49.728;9.228;2022-09-17T12:43:55;6.30;;;6.30;;
2896;SDS011;1458;49.728;9.228;2022-09-17T12:46:59;5.67;;;5.67;;
2896;SDS011;1458;49.728;9.228;2022-09-17T12:50:01;5.67;;;5.67;;
2896;SDS011;1458;49.728;9.228;2022-09-17T12:52:50;6.67;;;6.57;;
2896;SDS011;1458;49.728;9.228;2022-09-17T12:55:34;6.50;;;6.40;;
2896;SDS011;1458;49.728;9.228;2022-09-17T12:58:19;7.47;;;7.37;;
2896;SDS011;1458;49.728;9.228;2022-09-17T13:01:00;6.80;;;6.70;;
2896;SDS011;1458;49.728;9.228;2022-09-17T13:03:35;8.50;;;8.40;;
2896;SDS011;1458;49.728;9.228;2022-09-17T13:06:21;8.20;;;8.10;;
2896;SDS011;1458;49.728;9.228;2022-09-17T13:12:25;8.60;;;8.50;;
2896;SDS011;1458;49.728;9.228;2022-09-17T13:18:13;7.60;;;7.50;;
2896;SDS011;1458;49.728;9.228;2022-09-17T13:20:56;7.40;;;7.30;;
2896;SDS011;1458;49.728;9.228;2022-09-17T13:23:31;5.60;;;5.60;;
2896;SDS011;1458;49.728;9.228;2022-09-17T13:26:01;4.90;;;4.90;;
2896;SDS011;1458;49.728;9.228;2022-09-17T13:28:41;4.60;;;4.60;;
2896;SDS011;1458;49.728;9.228;2022-09-17T13:31:10;4.00;;;4.00;;
2896;SDS011;1458;49.728;9.228;2022-09-17T13:33:49;3.70;;;3.70;;
2896;SDS011;1458;49.728;9.228;2022-09-17T13:36:42;3.60;;;3.60;;
2896;SDS011;1458;49.728;9.228;2022-09-17T13:42:12;3.73;;;3.73;;
2896;SDS011;1458;49.728;9.228;2022-09-17T13:44:46;3.63;;;3.63;;
2896;SDS011;1458;49.728;9.228;2022-09-17T13:47:19;4.00;;;4.00;;
2896;SDS011;1458;49.728;9.228;2022-09-17T13:49:51;4.10;;;4.10;;
2896;SDS011;1458;49.728;9.228;2022-09-17T13:52:34;3.70;;;3.70;;
2896;SDS011;1458;49.728;9.228;2022-09-17T13:55:05;3.60;;;3.60;;
2896;SDS011;1458;49.728;9.228;2022-09-17T13:57:44;3.73;;;3.73;;
2896;SDS011;1458;49.728;9.228;2022-09-17T14:15:32;4.50;;;4.50;;
2896;SDS011;1458;49.728;9.228;2022-09-17T14:21:17;4.77;;;4.77;;
2896;SDS011;1458;49.728;9.228;2022-09-17T14:23:54;4.60;;;4.60;;
2896;SDS011;1458;49.728;9.228;2022-09-17T14:26:27;5.90;;;5.90;;
2896;SDS011;1458;49.728;9.228;2022-09-17T14:29:10;7.27;;;7.17;;
2896;SDS011;1458;49.728;9.228;2022-09-17T14:31:59;6.87;;;6.77;;
2896;SDS011;1458;49.728;9.228;2022-09-17T14:34:27;7.03;;;6.93;;
2896;SDS011;1458;49.728;9.228;2022-09-17T14:36:55;7.63;;;7.53;;
2896;SDS011;1458;49.728;9.228;2022-09-17T14:39:26;8.00;;;7.90;;
2896;SDS011;1458;49.728;9.228;2022-09-17T14:42:02;8.97;;;8.77;;
2896;SDS011;1458;49.728;9.228;2022-09-17T14:44:36;8.70;;;8.60;;
2896;SDS011;1458;49.728;9.228;2022-09-17T14:47:13;9.00;;;8.80;;
2896;SDS011;1458;49.728;9.228;2022-09-17T14:49:46;9.80;;;9.60;;
2896;SDS011;1458;49.728;9.228;2022-09-17T14:52:25;9.90;;;9.70;;
2896;SDS011;1458;49.728;9.228;2022-09-17T14:55:13;9.70;;;9.50;;
2896;SDS011;1458;49.728;9.228;2022-09-17T14:57:46;9.60;;;9.40;;
2896;SDS011;1458;49.728;9.228;2022-09-17T15:00:22;9.57;;;9.37;;
2896;SDS011;1458;49.728;9.228;2022-09-17T15:02:51;10.30;;;10.10;;
2896;SDS011;1458;49.728;9.228;2022-09-17T15:05:25;10.13;;;9.93;;
2896;SDS011;1458;49.728;9.228;2022-09-17T15:08:06;10.23;;;10.03;;
2896;SDS011;1458;49.728;9.228;2022-09-17T15:10:44;10.33;;;10.13;;
2896;SDS011;1458;49.728;9.228;2022-09-17T15:13:18;10.90;;;10.60;;
2896;SDS011;1458;49.728;9.228;2022-09-17T15:15:52;10.70;;;10.40;;
2896;SDS011;1458;49.728;9.228;2022-09-17T15:18:28;10.40;;;10.20;;
2896;SDS011;1458;49.728;9.228;2022-09-17T15:21:01;10.80;;;10.50;;
2896;SDS011;1458;49.728;9.228;2022-09-17T15:23:40;10.90;;;10.60;;
2896;SDS011;1458;49.728;9.228;2022-09-17T15:26:09;11.10;;;10.80;;
2896;SDS011;1458;49.728;9.228;2022-09-17T15:28:40;10.70;;;10.40;;
2896;SDS011;1458;49.728;9.228;2022-09-17T15:31:12;10.50;;;10.30;;
2896;SDS011;1458;49.728;9.228;2022-09-17T15:33:44;10.63;;;10.33;;
2896;SDS011;1458;49.728;9.228;2022-09-17T15:36:16;10.70;;;10.40;;
2896;SDS011;1458;49.728;9.228;2022-09-17T15:38:47;10.30;;;10.10;;
2896;SDS011;1458;49.728;9.228;2022-09-17T15:41:22;10.30;;;10.10;;
2896;SDS011;1458;49.728;9.228;2022-09-17T15:44:05;10.00;;;9.80;;
2896;SDS011;1458;49.728;9.228;2022-09-17T15:46:47;7.80;;;7.70;;
2896;SDS011;1458;49.728;9.228;2022-09-17T15:49:31;6.60;;;6.60;;
2896;SDS011;1458;49.728;9.228;2022-09-17T15:54:55;6.00;;;6.00;;
2896;SDS011;1458;49.728;9.228;2022-09-17T15:57:23;5.50;;;5.50;;
2896;SDS011;1458;49.728;9.228;2022-09-17T15:59:53;4.80;;;4.80;;
2896;SDS011;1458;49.728;9.228;2022-09-17T16:02:24;4.40;;;4.40;;
2896;SDS011;1458;49.728;9.228;2022-09-17T16:08:16;4.70;;;4.70;;
2896;SDS011;1458;49.728;9.228;2022-09-17T16:10:47;4.30;;;4.30;;
2896;SDS011;1458;49.728;9.228;2022-09-17T16:13:15;3.50;;;3.50;;
2896;SDS011;1458;49.728;9.228;2022-09-17T16:15:44;2.90;;;2.90;;
2896;SDS011;1458;49.728;9.228;2022-09-17T16:18:12;2.40;;;2.40;;
2896;SDS011;1458;49.728;9.228;2022-09-17T16:20:41;2.97;;;2.97;;
2896;SDS011;1458;49.728;9.228;2022-09-17T16:23:08;2.10;;;2.10;;
2896;SDS011;1458;49.728;9.228;2022-09-17T16:25:36;1.93;;;1.93;;
2896;SDS011;1458;49.728;9.228;2022-09-17T16:28:07;1.70;;;1.70;;
2896;SDS011;1458;49.728;9.228;2022-09-17T16:30:39;1.63;;;1.63;;
2896;SDS011;1458;49.728;9.228;2022-09-17T16:33:13;1.30;;;1.30;;
2896;SDS011;1458;49.728;9.228;2022-09-17T16:35:42;1.50;;;1.50;;
2896;SDS011;1458;49.728;9.228;2022-09-17T16:38:10;1.43;;;1.43;;
2896;SDS011;1458;49.728;9.228;2022-09-17T16:40:41;1.10;;;1.10;;
2896;SDS011;1458;49.728;9.228;2022-09-17T16:43:11;1.00;;;1.00;;
2896;SDS011;1458;49.728;9.228;2022-09-17T16:45:38;1.23;;;1.23;;
2896;SDS011;1458;49.728;9.228;2022-09-17T16:48:07;1.30;;;1.30;;
2896;SDS011;1458;49.728;9.228;2022-09-17T16:50:38;1.30;;;1.30;;
2896;SDS011;1458;49.728;9.228;2022-09-17T16:53:07;1.20;;;1.20;;
2896;SDS011;1458;49.728;9.228;2022-09-17T16:55:34;0.90;;;0.90;;
2896;SDS011;1458;49.728;9.228;2022-09-17T16:58:02;1.17;;;1.17;;